This is the latest recevied weather packets stored in our database for station/object WR7DW-3. If no packets are shown the sender has not sent any weather packets the latest 10 day(s).
| Time | Temp. | Humidity | Pressure | Rain* | Wind** | Luminosity | Snow |
|---|---|---|---|---|---|---|---|
| 1778163274 | 3.89° C | 89% | 1005.4 hPa | 1.27 mm | - | - | - |
| 1778162374 | 3.89° C | 90% | 1005.4 hPa | 1.27 mm | - | - | - |
| 1778161474 | 3.89° C | 89% | 1005.6 hPa | 1.27 mm | - | - | - |
| 1778160574 | 3.89° C | 88% | 1005.4 hPa | 0.25 mm | - | - | - |
| 1778159674 | 3.89° C | 88% | 1005 hPa | 0 mm | - | - | - |
| 1778158774 | 3.89° C | 86% | 1005 hPa | 0 mm | - | - | - |
| 1778157878 | 4.44° C | 84% | 1005 hPa | 0 mm | - | - | - |
| 1778156075 | 4.44° C | 82% | 1004.9 hPa | 0 mm | - | - | - |
| 1778155174 | 3.89° C | 83% | 1004.8 hPa | 0 mm | - | - | - |
| 1778154274 | 3.89° C | 83% | 1004.8 hPa | 0 mm | - | - | - |
| 1778153374 | 4.44° C | 81% | 1004.7 hPa | 0 mm | - | - | - |
| 1778152474 | 5.56° C | 78% | 1004.9 hPa | 0 mm | - | - | - |
| 1778151574 | 5° C | 78% | 1005 hPa | 0 mm | - | - | - |
| 1778150676 | 5.56° C | 78% | 1005 hPa | 0 mm | - | - | - |
| 1778149774 | 5.56° C | 78% | 1004.8 hPa | 0 mm | - | - | - |
| 1778147974 | 5.56° C | 77% | 1005.1 hPa | 0 mm | - | - | - |
| 1778147075 | 5° C | 76% | 1005.1 hPa | 0 mm | - | - | - |
| 1778146174 | 5° C | 76% | 1005 hPa | 0 mm | - | - | - |
| 1778145275 | 5.56° C | 76% | 1004.9 hPa | 0 mm | - | - | - |
| 1778144374 | 5.56° C | 77% | 1005.1 hPa | 0.25 mm | - | - | - |
| 1778143474 | 5° C | 79% | 1005.3 hPa | 1.02 mm | - | - | - |
| 1778142574 | 3.89° C | 83% | 1005.8 hPa | 1.27 mm | - | - | - |
| 1778141674 | 4.44° C | 78% | 1005.5 hPa | 1.52 mm | - | - | - |
| 1778140774 | 3.89° C | 86% | 1005.7 hPa | 1.27 mm | - | - | - |
| 1778139874 | 3.89° C | 90% | 1006.6 hPa | 0.76 mm | - | - | - |
* Rain latest hour (hover to see other rain measurements)
** Current wind speed in m/s (hover to see current wind gust speed)